Watts Bar Dam, Tennessee
Current Conditions -  °F | °C
As of 9:55 PM on Wednesday 26 Nov 2014 (Local Time) from KMMI Reporting Station
Overcast Overcast  
Wind Chill: 39°   Ceiling: 4800
Heat Index: 45°   Visibility: 10mi
Dew Point: 32°   Wind: 10mph
Humidity: 61%   Direction: 220°SW
Pressure: 30.05"   Gusts: NA
Location:  35.61°N, 84.76°W
Report Text: KMMI 270255Z AUTO 22009KT 10SM SCT039 BKN048 OVC065 07/00 A3005 RMK
Loading
Personal Weather Stations






























Interactive Weather Map New forecast layout! Learn more

10-Day Weather Forecast

Advertisements
Track Severe Weather on mobile